Time;durP1;ratioP1;P1;durP2;ratioP2;P2;SDS_P1;SDS_P2;PMS_P1;PMS_P2;Temp;Humidity;BMP_temperature;BMP_pressure;BME280_temperature;BME280_humidity;BME280_pressure;Samples;Min_cycle;Max_cycle;Signal;HPM_P1;HPM_P2
2021/12/08 00:00:51;;;;;;;108.80;60.75;;;;;;;13.35;100.00;98982.25;5065783;28;20083;-65
2021/12/08 00:03:38;;;;;;;130.77;59.75;;;;;;;13.29;100.00;98978.16;5047426;28;20658;-64
2021/12/08 00:06:27;;;;;;;121.95;61.08;;;;;;;13.31;100.00;98978.13;5049684;28;20122;-65
2021/12/08 00:09:45;;;;;;;110.57;60.08;;;;;;;13.23;100.00;98978.41;5066165;28;20111;-65
2021/12/08 00:16:02;;;;;;;121.63;60.80;;;;;;;13.12;100.00;98977.88;5060083;28;20471;-65
2021/12/08 00:18:51;;;;;;;126.25;65.07;;;;;;;13.07;100.00;98987.56;5066233;28;20048;-64
2021/12/08 00:21:33;;;;;;;125.32;66.40;;;;;;;13.08;100.00;98993.59;5065934;28;20053;-65
2021/12/08 00:24:22;;;;;;;138.52;67.40;;;;;;;12.96;100.00;98987.09;5066065;28;20059;-65
2021/12/08 00:27:05;;;;;;;129.75;66.55;;;;;;;12.99;100.00;98994.75;5050246;28;20431;-64
2021/12/08 00:29:54;;;;;;;135.15;69.78;;;;;;;12.97;100.00;98996.53;5033891;28;20133;-65
2021/12/08 00:32:42;;;;;;;131.63;70.93;;;;;;;12.89;100.00;98993.38;5069629;28;20062;-64
2021/12/08 00:35:28;;;;;;;131.65;70.85;;;;;;;12.80;100.00;98996.25;5072392;28;20056;-64
2021/12/08 00:38:18;;;;;;;138.38;73.45;;;;;;;12.73;100.00;98997.38;5072076;28;20060;-64
2021/12/08 00:41:00;;;;;;;138.55;72.72;;;;;;;12.78;100.00;98998.03;5073090;28;20066;-64
2021/12/08 00:43:48;;;;;;;137.13;69.03;;;;;;;12.76;100.00;99005.03;5072321;28;20143;-65
2021/12/08 00:46:31;;;;;;;133.30;69.90;;;;;;;12.79;100.00;99004.91;5072328;28;20114;-64
2021/12/08 00:49:21;;;;;;;142.65;72.90;;;;;;;12.60;100.00;99002.97;5071725;28;20056;-64
2021/12/08 00:52:04;;;;;;;137.45;73.40;;;;;;;12.68;100.00;99004.44;5051466;28;20064;-64
2021/12/08 00:54:59;;;;;;;148.73;75.88;;;;;;;12.54;100.00;99002.28;5073030;27;20052;-64
2021/12/08 00:57:37;;;;;;;149.15;73.82;;;;;;;12.71;100.00;98999.16;5071578;28;20059;-64
2021/12/08 01:00:42;;;;;;;140.07;73.72;;;;;;;12.68;100.00;99009.63;5074369;28;20049;-65
2021/12/08 01:03:19;;;;;;;146.65;74.40;;;;;;;12.64;100.00;99001.09;5053912;28;20107;-64
2021/12/08 01:06:08;;;;;;;136.82;72.78;;;;;;;13.12;100.00;99008.09;5072784;28;20040;-64
2021/12/08 01:08:50;;;;;;;;;;;;;;;13.14;100.00;99009.75;5072755;28;20052;-64
2021/12/08 01:11:40;;;;;;;140.15;74.13;;;;;;;13.14;100.00;99017.53;5054142;28;20021;-64
2021/12/08 01:14:23;;;;;;;139.43;73.63;;;;;;;12.99;100.00;99015.44;5072355;28;20052;-64
2021/12/08 01:17:14;;;;;;;146.63;75.93;;;;;;;12.83;100.00;99020.28;5054150;28;20064;-65
2021/12/08 01:19:56;;;;;;;151.07;78.70;;;;;;;12.63;100.00;99017.50;5072566;28;20052;-64
2021/12/08 01:22:45;;;;;;;151.70;78.85;;;;;;;12.45;100.00;99028.47;5071956;28;20135;-64
2021/12/08 01:25:28;;;;;;;163.00;81.28;;;;;;;12.56;100.00;99024.63;5072373;28;20053;-64
2021/12/08 01:28:20;;;;;;;149.15;78.75;;;;;;;12.43;100.00;99038.84;5071297;28;20049;-63
2021/12/08 01:31:15;;;;;;;168.07;87.43;;;;;;;12.38;100.00;99043.28;5070764;28;20071;-68
2021/12/08 01:33:52;;;;;;;165.60;89.47;;;;;;;12.37;100.00;99039.00;5054859;28;20147;-66
2021/12/08 01:36:49;;;;;;;179.45;95.57;;;;;;;12.29;100.00;99037.59;5054128;28;20044;-64
2021/12/08 01:39:26;;;;;;;201.50;99.38;;;;;;;12.35;100.00;99050.31;5054122;28;20048;-64
2021/12/08 01:42:27;;;;;;;186.32;101.05;;;;;;;12.30;100.00;99050.44;5072307;28;20052;-64
2021/12/08 01:48:28;;;;;;;215.80;102.47;;;;;;;12.13;100.00;99047.53;5060651;28;20048;-65
2021/12/08 01:51:10;;;;;;;192.93;98.10;;;;;;;12.13;100.00;99047.53;5067404;28;20052;-64
2021/12/08 01:54:07;;;;;;;195.07;96.72;;;;;;;12.18;100.00;99040.47;5070695;27;20051;-64
2021/12/08 01:56:57;;;;;;;199.30;98.75;;;;;;;12.27;100.00;99045.38;5066005;28;20048;-65
2021/12/08 01:59:46;;;;;;;198.93;95.80;;;;;;;12.29;100.00;99064.25;5062952;28;20060;-64
2021/12/08 02:02:29;;;;;;;200.68;102.40;;;;;;;12.39;100.00;99060.47;5068262;28;26350;-64
2021/12/08 02:05:18;;;;;;;206.70;99.32;;;;;;;12.25;100.00;99065.22;5068047;28;20046;-63
2021/12/08 02:08:00;;;;;;;222.20;101.50;;;;;;;12.25;100.00;99065.22;5068711;28;20143;-64
2021/12/08 02:10:50;;;;;;;202.00;101.10;;;;;;;12.21;100.00;99068.81;5053290;28;20102;-64
2021/12/08 02:13:39;;;;;;;206.27;100.97;;;;;;;12.32;100.00;99061.56;5068149;28;20056;-64
2021/12/08 02:16:26;;;;;;;214.85;102.35;;;;;;;12.42;100.00;99070.72;5066250;28;20037;-64
2021/12/08 02:19:17;;;;;;;216.73;102.28;;;;;;;12.24;100.00;99076.44;5051247;28;20073;-64
2021/12/08 02:22:00;;;;;;;218.88;102.20;;;;;;;12.32;100.00;99077.06;5067830;28;20211;-64
2021/12/08 02:24:50;;;;;;;229.18;106.13;;;;;;;12.33;100.00;99081.34;5068205;28;20811;-64
2021/12/08 02:27:32;;;;;;;236.48;108.32;;;;;;;12.52;100.00;99087.66;5067797;28;20045;-64
2021/12/08 02:30:47;;;;;;;239.07;109.10;;;;;;;12.43;100.00;99081.91;5067691;28;20063;-64
2021/12/08 02:49:00;;;;;;;251.77;119.10;;;;;;;13.04;100.00;99094.53;5079303;28;20044;-64
2021/12/08 02:51:42;;;;;;;236.95;119.20;;;;;;;13.35;100.00;99096.97;5059644;28;20049;-64
2021/12/08 02:54:50;;;;;;;229.93;122.15;;;;;;;13.77;100.00;99104.97;5065718;28;20041;-64
2021/12/08 02:57:40;;;;;;;256.85;125.95;;;;;;;13.90;100.00;99102.75;5077421;28;20049;-64
2021/12/08 03:00:32;;;;;;;263.90;128.50;;;;;;;14.12;100.00;99105.44;5073535;28;20044;-64
2021/12/08 03:03:16;;;;;;;274.20;134.10;;;;;;;14.09;100.00;99103.78;5074223;28;20638;-64
2021/12/08 03:06:06;;;;;;;261.20;131.80;;;;;;;14.13;100.00;99107.09;5070456;28;20127;-63
2021/12/08 03:08:49;;;;;;;278.10;137.02;;;;;;;14.40;100.00;99110.41;5068998;28;20055;-63
2021/12/08 03:11:38;;;;;;;268.45;137.27;;;;;;;14.77;100.00;99120.19;5056268;28;20055;-66
2021/12/08 03:14:22;;;;;;;254.38;132.43;;;;;;;15.27;100.00;99120.72;5053452;28;20051;-64
2021/12/08 03:17:15;;;;;;;280.35;140.45;;;;;;;15.78;100.00;99127.22;5072459;28;20054;-64
2021/12/08 03:19:58;;;;;;;272.05;140.32;;;;;;;16.36;100.00;99130.66;5055868;28;20079;-64
2021/12/08 03:22:48;;;;;;;273.50;141.23;;;;;;;16.73;99.12;99135.84;5071952;28;20052;-64
2021/12/08 03:25:36;;;;;;;282.77;144.20;;;;;;;16.92;98.18;99137.56;5043732;28;20129;-64
2021/12/08 03:28:29;;;;;;;267.90;140.68;;;;;;;17.52;95.27;99141.47;5072777;28;20566;-64
2021/12/08 03:31:18;;;;;;;262.95;135.45;;;;;;;18.10;90.91;99152.38;5054410;28;20311;-64
2021/12/08 03:34:07;;;;;;;252.68;133.23;;;;;;;18.63;88.20;99149.50;5068857;28;20056;-64
2021/12/08 03:36:52;;;;;;;252.90;130.00;;;;;;;19.21;84.26;99155.81;5065066;28;20048;-64
2021/12/08 03:39:42;;;;;;;239.63;120.53;;;;;;;19.49;78.96;99159.38;5052153;28;20534;-65
2021/12/08 03:42:39;;;;;;;224.57;123.20;;;;;;;19.96;77.64;99171.38;5045051;28;20067;-64
2021/12/08 03:45:30;;;;;;;229.23;118.25;;;;;;;20.25;78.37;99167.00;5053443;28;20058;-64
2021/12/08 03:48:38;;;;;;;218.05;122.22;;;;;;;20.11;81.06;99173.06;5080466;28;20056;-64
2021/12/08 03:51:25;;;;;;;222.30;115.47;;;;;;;20.59;70.33;99186.72;5071101;28;20044;-64
2021/12/08 03:54:09;;;;;;;213.45;116.05;;;;;;;20.90;71.94;99186.47;5050879;28;20483;-64
2021/12/08 03:57:04;;;;;;;207.38;115.45;;;;;;;20.79;71.76;99191.53;5032452;28;20056;-64
2021/12/08 03:59:40;;;;;;;209.57;115.57;;;;;;;20.92;70.51;99184.56;5066643;28;20105;-64
2021/12/08 04:02:29;;;;;;;202.13;109.30;;;;;;;21.32;70.73;99190.69;5051090;28;20484;-64
2021/12/08 04:05:19;;;;;;;210.75;110.72;;;;;;;21.53;65.00;99193.72;5043776;28;20051;-64
2021/12/08 04:08:19;;;;;;;197.10;109.95;;;;;;;21.80;68.46;99195.41;5026726;28;20045;-64
2021/12/08 04:10:55;;;;;;;207.93;109.75;;;;;;;21.92;66.73;99197.22;5018794;28;20140;-65
2021/12/08 04:14:03;;;;;;;201.52;110.40;;;;;;;21.80;62.63;99203.28;5042684;28;20059;-64
2021/12/08 04:16:43;;;;;;;209.35;108.93;;;;;;;21.61;64.94;99199.28;5043400;28;20559;-64
2021/12/08 04:19:32;;;;;;;209.90;110.18;;;;;;;21.96;66.63;99206.53;5033880;28;20101;-64
2021/12/08 04:22:41;;;;;;;208.35;111.38;;;;;;;21.96;67.59;99204.75;5040662;28;20672;-64
2021/12/08 04:25:34;;;;;;;199.07;106.13;;;;;;;22.08;64.46;99211.00;5045078;28;20872;-64
2021/12/08 04:28:30;;;;;;;193.25;105.25;;;;;;;22.10;62.40;99224.84;5054259;28;20488;-64
2021/12/08 04:31:20;;;;;;;207.38;105.15;;;;;;;21.85;64.48;99217.78;5053405;28;20047;-64
2021/12/08 04:34:18;;;;;;;194.82;105.25;;;;;;;22.00;68.87;99216.75;5043566;28;20135;-64
2021/12/08 04:37:09;;;;;;;183.75;102.18;;;;;;;22.16;67.09;99220.97;5028575;28;20057;-63
2021/12/08 04:40:18;;;;;;;194.07;96.90;;;;;;;22.02;60.67;99224.53;5042250;28;20045;-64
2021/12/08 04:49:37;;;;;;;155.32;84.65;;;;;;;21.68;57.01;99234.66;5040440;28;20362;-64
2021/12/08 04:52:27;;;;;;;153.37;86.87;;;;;;;21.81;56.89;99231.19;5046268;28;20048;-64
2021/12/08 05:02:03;;;;;;;164.68;88.63;;;;;;;21.64;60.88;99230.53;5064063;28;20044;-63
2021/12/08 05:07:55;;;;;;;123.78;68.63;;;;;;;22.00;54.04;99232.50;5038448;28;20045;-63
2021/12/08 05:10:39;;;;;;;145.32;76.40;;;;;;;22.16;60.49;99232.31;5063123;28;20079;-64
2021/12/08 05:13:28;;;;;;;154.13;81.05;;;;;;;22.35;58.02;99240.56;5067881;28;20076;-64
2021/12/08 05:16:19;;;;;;;139.93;77.57;;;;;;;22.36;59.53;99229.13;5064885;28;20137;-64
2021/12/08 05:19:11;;;;;;;148.05;82.03;;;;;;;22.09;56.42;99231.03;5064350;28;20380;-63
2021/12/08 05:22:01;;;;;;;124.55;64.68;;;;;;;21.92;55.88;99233.94;5050717;28;20041;-64
2021/12/08 05:24:54;;;;;;;131.18;69.15;;;;;;;22.27;52.43;99236.81;5065624;28;20059;-64
2021/12/08 05:27:56;;;;;;;151.55;75.63;;;;;;;22.32;55.35;99232.94;5063521;28;20111;-65
2021/12/08 05:30:37;;;;;;;;;;;;;;;22.28;56.13;99231.44;5068419;28;20136;-63
2021/12/08 05:33:28;;;;;;;141.98;66.70;;;;;;;22.24;54.09;99234.41;5063985;28;19928;-65
2021/12/08 05:36:12;;;;;;;127.05;69.60;;;;;;;22.12;52.93;99228.19;5067487;28;20080;-68
2021/12/08 05:39:06;;;;;;;143.15;74.65;;;;;;;21.90;56.26;99225.31;5048821;28;20048;-65
2021/12/08 05:42:02;;;;;;;143.93;74.60;;;;;;;22.48;56.92;99215.16;5065611;28;20058;-63
2021/12/08 05:44:44;;;;;;;135.25;74.82;;;;;;;22.41;55.19;99218.31;5061675;28;20048;-66
2021/12/08 05:47:36;;;;;;;133.50;67.95;;;;;;;22.50;56.64;99218.53;5060006;28;20055;-64
2021/12/08 05:50:41;;;;;;;112.45;60.42;;;;;;;22.84;55.22;99216.13;5047350;28;20048;-65
2021/12/08 05:53:33;;;;;;;119.07;65.82;;;;;;;22.67;52.71;99216.50;5065030;28;20044;-64
2021/12/08 05:56:19;;;;;;;140.13;67.95;;;;;;;22.64;50.54;99221.97;5071001;28;20106;-66
2021/12/08 05:59:11;;;;;;;121.38;64.45;;;;;;;22.82;51.70;99212.81;5073792;28;20048;-66
2021/12/08 06:01:56;;;;;;;121.13;65.70;;;;;;;22.52;50.95;99203.47;5070326;28;20438;-65
2021/12/08 06:04:46;;;;;;;120.65;68.03;;;;;;;22.88;52.81;99213.19;5069110;28;20044;-66
2021/12/08 06:07:29;;;;;;;137.27;70.13;;;;;;;23.15;52.79;99215.59;5065360;28;20056;-61
2021/12/08 06:10:27;;;;;;;146.23;75.43;;;;;;;22.92;52.38;99216.44;5063066;28;20047;-65
2021/12/08 06:13:13;;;;;;;129.30;71.13;;;;;;;22.80;52.33;99215.53;5075220;28;20483;-66
2021/12/08 06:16:04;;;;;;;116.28;60.40;;;;;;;22.41;50.11;99218.31;5071188;28;20133;-65
2021/12/08 06:18:53;;;;;;;113.30;57.88;;;;;;;22.29;51.51;99212.13;5071085;28;20044;-65
2021/12/08 06:21:37;;;;;;;101.10;55.20;;;;;;;22.60;53.61;99209.97;5065771;28;20058;-65
2021/12/08 06:24:27;;;;;;;89.40;50.58;;;;;;;22.34;49.50;99214.44;5053637;28;20044;-65
2021/12/08 06:27:09;;;;;;;83.25;43.67;;;;;;;22.65;50.97;99202.63;5055156;28;20151;-65
2021/12/08 06:29:59;;;;;;;67.28;37.22;;;;;;;22.58;47.14;99206.63;5073784;28;20119;-65
2021/12/08 06:32:42;;;;;;;61.88;34.45;;;;;;;22.53;48.77;99199.91;5077445;28;20044;-66
2021/12/08 06:35:47;;;;;;;61.40;31.88;;;;;;;22.88;47.25;99200.06;5072212;28;20082;-64
2021/12/08 06:38:25;;;;;;;65.45;33.53;;;;;;;22.91;47.17;99201.59;5067382;28;20048;-64
2021/12/08 06:41:25;;;;;;;;;;;;;;;22.69;49.17;99199.66;5053678;28;20380;-63
2021/12/08 06:44:09;;;;;;;69.72;34.83;;;;;;;22.91;48.00;99198.16;5034767;28;19924;-65
2021/12/08 06:47:09;;;;;;;74.30;34.28;;;;;;;22.59;47.90;99195.19;5067162;28;20047;-63
2021/12/08 06:50:10;;;;;;;64.10;35.85;;;;;;;22.49;45.82;99193.22;5060180;28;20048;-64
2021/12/08 06:52:47;;;;;;;77.72;44.45;;;;;;;22.61;46.92;99182.75;5056698;28;20076;-64
2021/12/08 06:56:04;;;;;;;69.15;39.22;;;;;;;22.30;45.00;99177.06;5069931;28;20056;-65
2021/12/08 06:59:02;;;;;;;82.47;40.88;;;;;;;22.67;48.66;99167.41;5044702;28;20041;-65
2021/12/08 07:02:10;;;;;;;94.63;45.65;;;;;;;22.67;49.51;99166.59;5060461;28;20118;-64
2021/12/08 07:05:13;;;;;;;92.15;47.53;;;;;;;22.49;48.71;99166.94;5046920;28;20094;-65
2021/12/08 07:08:04;;;;;;;73.03;38.25;;;;;;;22.65;48.24;99160.59;5047177;28;20049;-64
2021/12/08 07:10:56;;;;;;;83.32;43.80;;;;;;;22.82;48.57;99161.09;5046545;28;20127;-65
2021/12/08 07:13:47;;;;;;;96.57;48.38;;;;;;;22.62;46.75;99160.81;5053133;28;20040;-64
2021/12/08 07:16:45;;;;;;;88.30;48.92;;;;;;;22.51;48.88;99154.53;5056104;28;20481;-65
2021/12/08 07:19:44;;;;;;;90.75;46.38;;;;;;;22.27;50.68;99150.19;5043698;28;20491;-64
2021/12/08 07:22:35;;;;;;;80.95;43.33;;;;;;;22.49;47.85;99150.34;5047786;28;20442;-64
2021/12/08 07:25:26;;;;;;;80.00;43.83;;;;;;;22.56;51.89;99142.88;5054603;28;20069;-65
2021/12/08 07:28:11;;;;;;;90.57;46.15;;;;;;;22.56;52.26;99133.19;5026773;28;20049;-66
2021/12/08 07:31:06;;;;;;;82.43;45.28;;;;;;;22.51;49.75;99138.75;5044200;28;20136;-63
2021/12/08 07:34:02;;;;;;;83.78;45.53;;;;;;;22.45;48.80;99133.97;5054100;28;20095;-64
2021/12/08 07:36:49;;;;;;;87.65;46.78;;;;;;;22.34;48.64;99133.91;5051322;28;21111;-64
2021/12/08 07:39:44;;;;;;;85.57;41.33;;;;;;;22.28;46.69;99120.34;5052707;28;20052;-64
2021/12/08 07:42:50;;;;;;;85.53;43.28;;;;;;;22.61;47.40;99122.34;5038380;28;20076;-65
2021/12/08 07:45:46;;;;;;;82.25;41.45;;;;;;;22.80;49.09;99120.94;5054194;28;20049;-64
2021/12/08 07:48:34;;;;;;;91.35;46.50;;;;;;;22.49;47.16;99119.69;5043767;28;20476;-63
2021/12/08 07:51:26;;;;;;;;;;;;;;;22.59;49.11;99113.78;5050657;28;20048;-63
2021/12/08 07:54:11;;;;;;;71.88;35.53;;;;;;;22.73;47.60;99116.22;5042676;28;20052;-66
2021/12/08 07:57:04;;;;;;;66.88;33.83;;;;;;;22.86;47.75;99112.63;5056914;28;20123;-64
2021/12/08 07:59:52;;;;;;;66.70;32.78;;;;;;;22.66;45.02;99109.75;5065099;28;20078;-64
2021/12/08 08:02:49;;;;;;;60.65;31.55;;;;;;;22.64;45.91;99114.25;5066270;28;20053;-63
2021/12/08 08:05:39;;;;;;;71.43;33.50;;;;;;;22.57;45.45;99116.50;5066769;28;20136;-65
2021/12/08 08:08:25;;;;;;;67.60;31.65;;;;;;;22.42;44.12;99102.69;5062517;28;20128;-63
2021/12/08 08:11:24;;;;;;;67.90;33.43;;;;;;;22.49;45.66;99103.91;5050518;28;20123;-64
2021/12/08 08:14:15;;;;;;;58.08;31.35;;;;;;;22.58;46.70;99094.53;5062897;28;20285;-64
2021/12/08 08:17:06;;;;;;;62.58;29.58;;;;;;;22.64;47.26;99090.63;5065401;28;20075;-64
2021/12/08 08:19:51;;;;;;;54.67;27.20;;;;;;;22.46;43.78;99088.38;5066490;28;20098;-64
2021/12/08 08:22:44;;;;;;;53.38;26.88;;;;;;;22.56;44.87;99087.72;5064577;28;20071;-65
2021/12/08 08:25:29;;;;;;;46.95;24.05;;;;;;;22.52;44.83;99093.19;5065894;28;20059;-64
2021/12/08 08:28:19;;;;;;;46.33;23.87;;;;;;;22.72;43.88;99091.75;5064029;28;20253;-65
2021/12/08 08:31:22;;;;;;;38.67;21.13;;;;;;;22.50;42.46;99089.84;5064857;28;20044;-66
2021/12/08 08:34:05;;;;;;;45.47;21.08;;;;;;;22.42;43.88;99080.84;5065889;28;20579;-63
2021/12/08 08:36:57;;;;;;;38.08;19.08;;;;;;;22.29;43.79;99080.03;5066131;28;20056;-64
2021/12/08 08:39:54;;;;;;;34.20;18.17;;;;;;;22.31;41.82;99078.13;5065156;28;20051;-66
2021/12/08 08:42:49;;;;;;;34.75;19.02;;;;;;;22.38;43.35;99064.44;5064848;28;20063;-64
2021/12/08 08:45:36;;;;;;;34.35;17.23;;;;;;;22.35;41.51;99069.91;5066429;28;20049;-64
2021/12/08 08:48:39;;;;;;;34.00;19.05;;;;;;;22.33;44.28;99065.75;5065804;28;20110;-64
2021/12/08 08:51:38;;;;;;;35.53;22.42;;;;;;;22.47;44.13;99065.59;5066132;28;20044;-64
2021/12/08 08:54:21;;;;;;;44.33;21.85;;;;;;;22.53;45.07;99062.50;5053012;28;20052;-65
2021/12/08 08:57:28;;;;;;;33.80;18.45;;;;;;;22.36;40.79;99071.59;5069285;28;20095;-64
2021/12/08 09:00:25;;;;;;;43.67;19.80;;;;;;;22.34;42.64;99068.28;5069706;28;20515;-62
2021/12/08 09:03:20;;;;;;;45.03;19.45;;;;;;;22.38;43.22;99064.44;5069449;28;20036;-63
2021/12/08 09:06:15;;;;;;;41.30;20.10;;;;;;;22.48;44.01;99062.84;5053899;28;20141;-63
2021/12/08 09:09:04;;;;;;;49.95;23.75;;;;;;;22.52;45.49;99061.66;5069880;28;20118;-63
2021/12/08 09:12:09;;;;;;;63.25;30.60;;;;;;;22.44;44.75;99060.53;5067311;28;20056;-64
2021/12/08 09:15:19;;;;;;;62.40;31.13;;;;;;;22.37;44.24;99061.94;5070074;28;20048;-64
2021/12/08 09:18:38;;;;;;;47.33;26.15;;;;;;;22.35;44.16;99059.41;5048862;28;20049;-64
2021/12/08 09:21:47;;;;;;;39.10;21.40;;;;;;;22.33;43.52;99061.34;5057628;28;20460;-63
2021/12/08 09:25:13;;;;;;;23.20;15.43;;;;;;;22.26;40.89;99060.09;5069386;28;20041;-64
2021/12/08 09:27:58;;;;;;;43.90;18.25;;;;;;;22.23;43.33;99062.09;5062485;28;20049;-65
2021/12/08 09:31:02;;;;;;;36.15;17.85;;;;;;;22.15;40.73;99057.41;5067950;28;20049;-64
2021/12/08 09:34:00;;;;;;;42.30;18.45;;;;;;;22.20;42.59;99055.25;5052962;28;20072;-64
2021/12/08 09:36:56;;;;;;;54.03;22.25;;;;;;;22.27;43.41;99051.25;5068240;28;20353;-66
2021/12/08 09:39:56;;;;;;;43.95;23.13;;;;;;;22.19;44.21;99053.59;5066908;28;20106;-66
2021/12/08 09:42:46;;;;;;;43.58;24.45;;;;;;;22.17;43.54;99044.16;5068317;28;20072;-68
2021/12/08 09:45:47;;;;;;;50.83;24.98;;;;;;;22.16;46.75;99048.56;5068774;28;20064;-67
2021/12/08 09:48:41;;;;;;;47.72;25.50;;;;;;;22.00;46.43;99043.59;5067154;28;20048;-67
2021/12/08 09:51:31;;;;;;;49.22;27.70;;;;;;;21.98;44.94;99045.47;5061759;28;20040;-66
2021/12/08 09:54:20;;;;;;;62.92;28.08;;;;;;;22.08;46.13;99049.13;5064854;28;20527;-67
2021/12/08 09:57:07;;;;;;;55.50;25.73;;;;;;;22.13;44.85;99043.53;5062695;28;20627;-65
2021/12/08 09:59:56;;;;;;;55.27;25.63;;;;;;;22.03;45.33;99045.16;5064125;28;20111;-65
2021/12/08 10:02:48;;;;;;;50.55;25.33;;;;;;;22.02;47.02;99046.09;5022983;28;20057;-66
2021/12/08 10:05:34;;;;;;;50.92;26.17;;;;;;;22.05;48.91;99041.47;5047598;28;20057;-65
2021/12/08 10:08:25;;;;;;;60.17;26.63;;;;;;;21.91;50.44;99038.09;5049851;28;20479;-66
2021/12/08 10:11:16;;;;;;;54.55;28.20;;;;;;;21.82;53.06;99039.59;5054210;28;20135;-64
2021/12/08 10:14:08;;;;;;;57.28;26.67;;;;;;;21.73;51.00;99046.31;5061917;28;20048;-66
2021/12/08 10:16:53;;;;;;;56.25;26.65;;;;;;;21.79;50.46;99044.22;5035636;28;20050;-66
2021/12/08 10:19:43;;;;;;;56.07;29.57;;;;;;;21.74;50.05;99048.00;5030653;28;20326;-66
2021/12/08 10:22:26;;;;;;;72.65;32.88;;;;;;;21.74;48.36;99049.78;5044297;28;20532;-65
2021/12/08 10:25:17;;;;;;;57.65;30.75;;;;;;;21.68;49.53;99047.59;5042203;28;20135;-65
2021/12/08 10:28:21;;;;;;;54.25;28.42;;;;;;;21.63;47.89;99054.94;5043172;28;20128;-66
2021/12/08 10:31:02;;;;;;;51.15;27.52;;;;;;;21.63;48.25;99049.72;5044561;28;20067;-65
2021/12/08 10:36:56;;;;;;;56.90;28.33;;;;;;;21.48;48.70;99050.72;5044488;28;20057;-65
2021/12/08 10:39:48;;;;;;;52.33;26.85;;;;;;;21.42;49.36;99056.41;5056728;28;20484;-67
2021/12/08 10:42:38;;;;;;;52.15;24.95;;;;;;;21.32;52.84;99056.19;5047145;28;20064;-68
2021/12/08 10:45:28;;;;;;;54.00;24.75;;;;;;;21.32;51.57;99048.31;5049943;28;20045;-66
2021/12/08 10:48:36;;;;;;;49.90;25.30;;;;;;;21.28;55.25;99050.31;5027509;28;20119;-67
2021/12/08 10:54:34;;;;;;;46.67;22.00;;;;;;;20.96;58.23;99051.63;5045972;28;20136;-66
2021/12/08 10:57:37;;;;;;;43.17;23.25;;;;;;;20.99;53.68;99065.34;5036834;28;20136;-67
2021/12/08 11:00:30;;;;;;;48.95;23.52;;;;;;;20.88;54.26;99057.38;5052482;28;20103;-67
2021/12/08 11:03:20;;;;;;;47.33;23.38;;;;;;;20.81;54.37;99060.50;5040746;28;20128;-66
2021/12/08 11:06:15;;;;;;;49.45;24.65;;;;;;;20.75;59.27;99056.50;5046304;28;20056;-68
2021/12/08 11:08:57;;;;;;;54.78;22.88;;;;;;;20.60;61.99;99050.47;5045000;28;20144;-64
2021/12/08 11:11:46;;;;;;;52.42;24.10;;;;;;;20.51;62.64;99053.66;5048104;28;20719;-65
2021/12/08 11:14:52;;;;;;;57.17;25.23;;;;;;;20.48;62.76;99058.28;5048689;28;20131;-66
2021/12/08 11:17:43;;;;;;;55.15;26.00;;;;;;;20.42;65.03;99050.84;5041135;28;20049;-66
2021/12/08 11:20:39;;;;;;;59.08;26.83;;;;;;;20.33;59.82;99065.31;5046370;28;20573;-67
2021/12/08 11:23:28;;;;;;;50.75;26.30;;;;;;;20.27;64.81;99055.25;5049331;28;20040;-67
2021/12/08 11:26:25;;;;;;;58.72;27.67;;;;;;;20.08;67.79;99052.94;5051429;28;20111;-67
2021/12/08 11:29:22;;;;;;;56.78;26.38;;;;;;;19.98;70.08;99064.06;5033388;28;20463;-66
2021/12/08 11:32:18;;;;;;;54.58;26.00;;;;;;;19.79;70.75;99064.38;5048103;28;20057;-67
2021/12/08 11:35:07;;;;;;;52.15;27.27;;;;;;;19.65;72.94;99066.97;5037315;28;20147;-67
2021/12/08 11:38:01;;;;;;;49.72;26.58;;;;;;;19.51;73.09;99061.75;5051044;28;20143;-67
2021/12/08 11:40:50;;;;;;;51.67;27.85;;;;;;;19.40;75.94;99067.56;5056292;28;20059;-66
2021/12/08 11:43:41;;;;;;;55.22;29.35;;;;;;;19.23;76.80;99065.97;5036524;28;20151;-66
2021/12/08 11:46:33;;;;;;;60.50;30.27;;;;;;;19.20;76.34;99073.16;5051551;28;20080;-67
2021/12/08 11:49:31;;;;;;;66.30;28.70;;;;;;;19.20;76.32;99067.91;5048635;28;20037;-66
2021/12/08 11:52:23;;;;;;;65.15;29.50;;;;;;;19.25;75.36;99076.31;5040085;28;20055;-66
2021/12/08 11:55:15;;;;;;;60.38;30.85;;;;;;;19.03;75.32;99079.34;5049962;28;20641;-67
2021/12/08 11:58:01;;;;;;;65.00;29.67;;;;;;;18.85;77.64;99081.25;5049483;28;20050;-68
2021/12/08 12:00:52;;;;;;;66.25;31.08;;;;;;;18.70;80.39;99080.34;5063621;28;20465;-66
2021/12/08 12:03:42;;;;;;;75.75;31.55;;;;;;;18.42;82.82;99085.41;5066367;28;20148;-66
2021/12/08 12:06:31;;;;;;;72.43;30.60;;;;;;;18.43;82.92;99079.28;5063993;28;20131;-66
2021/12/08 12:09:21;;;;;;;68.03;31.23;;;;;;;18.14;84.92;99088.69;5068745;28;20487;-68
2021/12/08 12:12:10;;;;;;;76.63;32.50;;;;;;;18.11;85.34;99082.81;5069158;28;20161;-68
2021/12/08 12:14:53;;;;;;;74.00;32.35;;;;;;;17.96;84.98;99085.28;5066821;28;20041;-67
2021/12/08 12:17:42;;;;;;;66.70;32.47;;;;;;;17.97;87.99;99086.97;5064612;28;20163;-67
2021/12/08 12:20:38;;;;;;;85.88;33.40;;;;;;;17.84;88.70;99087.72;5064860;28;20048;-67
2021/12/08 12:23:42;;;;;;;85.75;32.92;;;;;;;17.76;89.76;99082.91;5063605;28;20511;-66
2021/12/08 12:26:57;;;;;;;84.85;34.60;;;;;;;17.69;90.10;99089.38;5064168;28;20416;-67
2021/12/08 12:29:41;;;;;;;75.07;33.47;;;;;;;17.68;89.39;99081.63;5062253;28;20044;-67
2021/12/08 12:32:44;;;;;;;95.35;37.58;;;;;;;17.66;88.57;99081.72;5062692;28;20407;-65
2021/12/08 12:35:38;;;;;;;101.80;37.45;;;;;;;17.67;89.72;99079.94;5047569;28;20083;-65
2021/12/08 12:38:40;;;;;;;72.70;35.90;;;;;;;17.59;90.68;99085.53;5060914;28;20072;-65
2021/12/08 12:41:40;;;;;;;80.93;35.13;;;;;;;17.53;92.27;99085.84;5049269;28;20044;-66
2021/12/08 12:44:29;;;;;;;85.07;35.58;;;;;;;17.45;92.22;99095.81;5065129;28;20052;-67
2021/12/08 12:47:36;;;;;;;102.68;37.35;;;;;;;17.41;94.33;99086.47;5063137;28;20518;-66
2021/12/08 12:50:21;;;;;;;83.22;37.70;;;;;;;17.34;94.34;99090.31;5061023;28;20102;-66
2021/12/08 12:53:11;;;;;;;105.95;37.30;;;;;;;17.27;95.94;99086.34;5064870;28;20166;-65
2021/12/08 12:56:01;;;;;;;102.10;37.53;;;;;;;17.33;96.24;99086.00;5066410;28;20471;-65
2021/12/08 12:58:53;;;;;;;114.63;39.05;;;;;;;17.28;96.61;99090.63;5064185;28;20057;-65
2021/12/08 13:01:47;;;;;;;111.28;36.45;;;;;;;17.23;96.10;99092.63;5045038;28;20123;-64
2021/12/08 13:04:35;;;;;;;82.57;36.67;;;;;;;17.21;96.41;99090.09;5062664;28;20120;-68
2021/12/08 13:07:28;;;;;;;105.40;36.33;;;;;;;17.17;95.94;99101.56;5055520;28;20114;-66
2021/12/08 13:10:28;;;;;;;84.25;38.42;;;;;;;17.08;98.25;99096.84;5062790;28;20048;-64
2021/12/08 13:13:18;;;;;;;99.80;38.97;;;;;;;17.02;99.01;99102.34;5061712;28;20109;-64
2021/12/08 13:16:07;;;;;;;94.65;36.45;;;;;;;16.95;99.52;99098.34;5061351;28;20636;-65
2021/12/08 13:19:03;;;;;;;97.38;39.50;;;;;;;16.88;100.00;99097.81;5061079;28;20060;-66
2021/12/08 13:21:58;;;;;;;112.10;39.15;;;;;;;16.85;100.00;99097.94;5062862;28;20052;-66
2021/12/08 13:24:43;;;;;;;92.53;40.35;;;;;;;16.82;100.00;99108.53;5061229;28;20041;-64
2021/12/08 13:27:35;;;;;;;91.68;39.20;;;;;;;16.78;100.00;99106.97;5062386;28;20049;-66
2021/12/08 13:30:19;;;;;;;96.28;39.58;;;;;;;16.73;100.00;99108.97;5054421;28;20040;-66
2021/12/08 13:33:18;;;;;;;110.35;39.75;;;;;;;16.72;100.00;99109.88;5063233;28;20052;-67
2021/12/08 13:36:25;;;;;;;105.90;39.75;;;;;;;16.71;100.00;99118.59;5061650;28;20048;-66
2021/12/08 13:39:36;;;;;;;107.72;39.20;;;;;;;16.69;100.00;99118.66;5063021;28;20040;-68
2021/12/08 13:42:55;;;;;;;98.25;39.13;;;;;;;16.60;100.00;99124.28;5066155;28;20071;-66
2021/12/08 13:45:51;;;;;;;95.15;39.88;;;;;;;16.57;100.00;99127.03;5066643;28;20062;-65
2021/12/08 13:49:15;;;;;;;125.32;41.17;;;;;;;16.53;100.00;99124.63;5066679;28;20048;-65